Time;durP1;ratioP1;P1;durP2;ratioP2;P2;SDS_P1;SDS_P2;PMS_P1;PMS_P2;Temp;Humidity;BMP_temperature;BMP_pressure;BME280_temperature;BME280_humidity;BME280_pressure;Samples;Min_cycle;Max_cycle;Signal;HPM_P1;HPM_P2
2022/02/26 00:00:17;;;;;;;46.23;22.93;;;;;;;2.27;58.01;100849.40;122746;1104;104430;-79
2022/02/26 00:03:08;;;;;;;51.43;22.93;;;;;;;2.26;58.72;100857.05;122895;1105;104340;-78
2022/02/26 00:05:41;;;;;;;45.70;21.47;;;;;;;2.25;58.39;100857.87;122858;1105;104341;-78
2022/02/26 00:08:13;;;;;;;43.57;22.33;;;;;;;2.24;58.91;100861.23;123282;1105;104338;-80
2022/02/26 00:10:45;;;;;;;51.10;23.20;;;;;;;2.20;58.84;100859.19;122791;1105;104293;-78
2022/02/26 00:13:16;;;;;;;48.85;23.00;;;;;;;2.16;58.67;100866.72;122751;1105;104316;-79
2022/02/26 00:15:48;;;;;;;47.23;22.17;;;;;;;2.13;58.43;100869.08;123083;1106;104335;-78
2022/02/26 00:18:19;;;;;;;49.30;21.40;;;;;;;2.11;58.60;100874.95;123051;1105;105027;-79
2022/02/26 00:20:51;;;;;;;48.00;22.83;;;;;;;2.09;59.21;100882.61;123280;1105;104288;-80
2022/02/26 00:23:22;;;;;;;46.50;23.23;;;;;;;2.07;58.66;100886.77;122882;1105;104258;-79
2022/02/26 00:25:54;;;;;;;46.00;22.13;;;;;;;2.06;58.50;100895.31;122909;1105;104206;-79
2022/02/26 00:28:26;;;;;;;45.73;22.83;;;;;;;2.05;58.86;100892.61;122990;1105;104338;-78
2022/02/26 00:30:58;;;;;;;46.13;21.40;;;;;;;2.03;58.99;100894.19;122833;1105;104363;-79
2022/02/26 00:33:29;;;;;;;47.20;21.40;;;;;;;2.03;59.18;100894.19;122824;1105;104285;-79
2022/02/26 00:36:01;;;;;;;46.87;20.63;;;;;;;2.04;59.39;100895.97;122826;1105;104312;-79
2022/02/26 00:38:32;;;;;;;45.53;20.87;;;;;;;2.04;58.68;100893.38;122899;1105;104299;-79
2022/02/26 00:41:04;;;;;;;43.60;20.97;;;;;;;2.02;59.07;100895.86;123163;1103;104316;-79
2022/02/26 00:43:35;;;;;;;46.83;22.07;;;;;;;2.00;59.14;100900.02;123134;1105;104377;-78
2022/02/26 00:46:07;;;;;;;44.13;21.60;;;;;;;1.98;58.95;100901.61;122990;1103;104366;-79
2022/02/26 00:51:29;;;;;;;47.57;22.17;;;;;;;1.93;59.38;100910.68;122883;1105;104299;-79
2022/02/26 00:54:00;;;;;;;48.60;22.10;;;;;;;1.92;59.51;100912.38;122734;1105;104732;-80
2022/02/26 00:56:32;;;;;;;45.43;21.70;;;;;;;1.91;59.29;100913.16;122967;1105;104277;-78
2022/02/26 00:59:03;;;;;;;45.00;21.00;;;;;;;1.90;59.91;100910.44;122779;1105;104749;-79
2022/02/26 01:01:35;;;;;;;42.47;21.70;;;;;;;1.88;59.92;100914.61;122781;1105;104303;-79
2022/02/26 01:04:08;;;;;;;45.67;20.23;;;;;;;1.87;59.55;100916.31;122675;1105;104258;-79
2022/02/26 01:06:39;;;;;;;48.70;21.53;;;;;;;1.87;59.66;100917.97;122991;1105;104302;-78
2022/02/26 01:09:11;;;;;;;43.97;20.90;;;;;;;1.86;60.65;100913.60;122837;1105;104317;-79
2022/02/26 01:11:42;;;;;;;39.23;19.93;;;;;;;1.85;61.14;100920.44;122890;1105;104267;-79
2022/02/26 01:14:13;;;;;;;40.07;17.80;;;;;;;1.84;60.37;100917.73;122916;1105;104326;-78
2022/02/26 01:16:44;;;;;;;43.00;19.70;;;;;;;1.85;60.67;100923.03;123065;1105;104679;-79
2022/02/26 01:19:16;;;;;;;41.77;20.00;;;;;;;1.85;60.62;100920.44;122707;1105;104397;-79
2022/02/26 01:21:47;;;;;;;39.17;18.33;;;;;;;1.86;60.87;100923.95;122652;1105;104300;-78
2022/02/26 01:24:20;;;;;;;38.07;18.73;;;;;;;1.87;60.94;100920.56;122885;1105;104711;-79
2022/02/26 01:26:51;;;;;;;40.73;19.13;;;;;;;1.90;60.85;100924.31;122902;1105;104370;-79
2022/02/26 01:29:23;;;;;;;42.03;19.87;;;;;;;1.91;61.69;100932.96;122856;1105;104384;-79
2022/02/26 01:31:56;;;;;;;40.90;20.25;;;;;;;1.92;60.70;100932.19;122790;1105;104322;-79
2022/02/26 01:34:28;;;;;;;38.67;18.80;;;;;;;1.92;61.30;100932.19;122713;1105;104277;-79
2022/02/26 01:37:00;;;;;;;40.43;20.03;;;;;;;1.92;60.85;100929.60;122846;1105;104749;-79
2022/02/26 01:39:31;;;;;;;40.90;20.43;;;;;;;1.93;61.06;100931.39;122696;1104;104265;-79
2022/02/26 01:42:03;;;;;;;40.03;19.00;;;;;;;1.92;61.70;100946.02;123016;1105;104485;-78
2022/02/26 01:44:37;;;;;;;40.57;19.37;;;;;;;1.92;62.18;100946.02;122796;1105;104530;-79
2022/02/26 01:47:07;;;;;;;;;;;;;;;1.91;63.16;100946.80;122953;1103;104286;-79
2022/02/26 01:49:39;;;;;;;43.53;20.03;;;;;;;1.91;61.53;100946.80;122787;1105;104335;-79
2022/02/26 01:52:12;;;;;;;38.07;18.17;;;;;;;1.92;62.02;100947.72;122957;1105;104185;-78
2022/02/26 01:54:42;;;;;;;;;;;;;;;1.91;62.34;100951.08;122925;1105;104791;-79
2022/02/26 01:57:14;;;;;;;46.87;20.80;;;;;;;1.91;62.30;100953.67;122900;1105;104360;-78
2022/02/26 01:59:45;;;;;;;36.33;17.23;;;;;;;1.93;62.67;100957.27;122999;1103;104296;-78
2022/02/26 02:02:17;;;;;;;40.80;19.83;;;;;;;1.93;62.76;100958.19;122638;1105;104255;-79
2022/02/26 02:04:48;;;;;;;41.83;18.57;;;;;;;1.92;62.92;100948.61;122707;1103;104265;-79
2022/02/26 02:07:20;;;;;;;39.43;18.43;;;;;;;1.94;62.71;100947.03;122883;1105;104408;-79
2022/02/26 02:09:51;;;;;;;36.63;18.17;;;;;;;1.93;62.87;100953.02;122708;1105;105549;-78
2022/02/26 02:12:23;;;;;;;38.33;18.60;;;;;;;1.93;63.00;100950.42;122806;1105;104332;-79
2022/02/26 02:14:54;;;;;;;36.23;17.17;;;;;;;1.94;62.63;100961.67;122897;1105;104281;-79
2022/02/26 02:17:25;;;;;;;37.90;17.67;;;;;;;1.93;62.90;100950.42;122710;1105;104398;-78
2022/02/26 02:19:57;;;;;;;32.97;17.47;;;;;;;1.93;62.57;100949.50;122789;1105;104695;-79
2022/02/26 02:22:28;;;;;;;35.00;17.80;;;;;;;1.96;63.13;100945.48;122841;1105;107087;-79
2022/02/26 02:25:00;;;;;;;33.75;16.50;;;;;;;1.98;62.55;100954.27;122800;1105;104267;-78
2022/02/26 02:27:31;;;;;;;37.27;16.40;;;;;;;2.02;62.51;100952.80;122947;1105;104319;-78
2022/02/26 02:30:03;;;;;;;35.57;16.07;;;;;;;2.05;62.77;100949.56;122883;1105;104312;-79
2022/02/26 02:32:35;;;;;;;37.67;17.13;;;;;;;2.07;64.12;100946.31;122981;1105;119506;-79
2022/02/26 02:35:08;;;;;;;37.67;17.67;;;;;;;2.09;64.19;100955.09;122870;1104;104373;-79
2022/02/26 02:37:40;;;;;;;34.60;15.97;;;;;;;2.11;64.53;100952.63;122692;1105;104259;-78
2022/02/26 02:40:13;;;;;;;37.23;17.87;;;;;;;2.11;64.09;100957.80;122780;1105;104665;-79
2022/02/26 02:42:45;;;;;;;37.25;17.75;;;;;;;2.11;63.16;100961.28;122896;1105;104242;-79
2022/02/26 02:45:18;;;;;;;33.83;16.80;;;;;;;2.12;63.28;100972.52;122855;1105;104395;-79
2022/02/26 02:47:50;;;;;;;32.83;16.80;;;;;;;2.13;63.34;100963.98;122837;1105;104382;-79
2022/02/26 02:50:22;;;;;;;35.27;17.57;;;;;;;2.14;63.29;100971.88;122984;1105;104730;-78
2022/02/26 02:52:53;;;;;;;37.55;17.65;;;;;;;2.14;63.65;100977.05;122878;1106;104745;-78
2022/02/26 02:55:25;;;;;;;34.53;16.80;;;;;;;2.19;63.33;100973.92;122760;1105;104377;-79
2022/02/26 02:57:57;;;;;;;35.30;17.93;;;;;;;2.23;63.70;100983.70;123040;1105;104258;-79
2022/02/26 03:00:30;;;;;;;33.77;15.87;;;;;;;2.28;63.70;100990.16;122809;1105;104744;-79
2022/02/26 03:03:01;;;;;;;34.53;16.90;;;;;;;2.35;64.07;100989.83;122751;1105;104413;-79
2022/02/26 03:05:32;;;;;;;34.10;15.83;;;;;;;2.40;64.29;100993.70;122885;1105;104345;-79
2022/02/26 03:08:04;;;;;;;35.43;16.83;;;;;;;2.43;64.65;100991.34;122808;1105;104361;-79
2022/02/26 03:10:35;;;;;;;35.97;16.63;;;;;;;2.47;63.89;100992.46;123002;1105;104394;-79
2022/02/26 03:13:07;;;;;;;36.77;16.40;;;;;;;2.49;65.13;100996.06;122662;1105;104303;-79
2022/02/26 03:15:39;;;;;;;34.80;16.73;;;;;;;2.53;64.93;101002.41;122852;1105;104287;-79
2022/02/26 03:18:10;;;;;;;33.70;16.20;;;;;;;2.56;65.95;100993.16;123022;1105;104275;-79
2022/02/26 03:20:43;;;;;;;32.05;17.05;;;;;;;2.57;65.28;100999.23;122844;1105;104345;-78
2022/02/26 03:23:15;;;;;;;34.17;16.60;;;;;;;2.60;65.11;100997.80;122932;1105;104429;-78
2022/02/26 03:25:46;;;;;;;36.95;17.60;;;;;;;2.61;65.22;101006.47;123077;1105;104453;-79
2022/02/26 03:28:18;;;;;;;34.20;17.43;;;;;;;2.62;65.84;101005.69;123028;1105;104319;-77
2022/02/26 03:30:50;;;;;;;37.30;18.30;;;;;;;2.64;65.85;101019.66;123001;1105;104704;-79
2022/02/26 03:33:22;;;;;;;35.00;16.80;;;;;;;2.65;66.21;101014.58;123101;1105;104288;-79
2022/02/26 03:35:53;;;;;;;29.43;15.43;;;;;;;2.68;65.66;101017.41;122793;1105;104271;-79
2022/02/26 03:38:25;;;;;;;33.70;17.00;;;;;;;2.73;66.23;101022.94;122786;1105;104273;-78
2022/02/26 03:40:56;;;;;;;29.83;14.67;;;;;;;2.77;65.73;101022.36;123028;1105;104288;-79
2022/02/26 03:43:28;;;;;;;34.40;16.27;;;;;;;2.81;66.12;101026.11;122814;1105;104737;-79
2022/02/26 03:45:59;;;;;;;31.27;15.87;;;;;;;2.86;66.11;101024.75;122726;1105;104268;-79
2022/02/26 03:48:30;;;;;;;36.50;16.07;;;;;;;2.89;66.70;101032.77;122715;1105;104422;-79
2022/02/26 03:51:05;;;;;;;33.87;15.57;;;;;;;2.92;66.90;101019.14;122907;1105;104267;-78
2022/02/26 03:53:37;;;;;;;31.05;15.45;;;;;;;2.95;66.65;101025.44;122695;1106;104261;-79
2022/02/26 03:56:09;;;;;;;33.20;16.17;;;;;;;2.97;65.87;101028.15;122927;1105;104259;-79
2022/02/26 03:58:40;;;;;;;30.80;15.27;;;;;;;2.99;66.33;101022.30;122933;1105;104648;-79
2022/02/26 04:01:11;;;;;;;30.57;16.23;;;;;;;3.02;66.68;101027.72;122861;1105;104320;-79
2022/02/26 04:03:43;;;;;;;32.70;16.63;;;;;;;3.06;65.76;101026.24;122704;1105;104370;-80
2022/02/26 04:06:14;;;;;;;34.33;16.80;;;;;;;3.10;66.20;101028.28;122840;1105;104261;-79
2022/02/26 04:08:46;;;;;;;35.70;16.75;;;;;;;3.13;66.74;101030.19;122752;1105;104392;-78
2022/02/26 04:11:17;;;;;;;29.10;16.07;;;;;;;3.16;65.79;101028.70;122709;1105;104315;-79
2022/02/26 04:13:49;;;;;;;30.17;16.57;;;;;;;3.19;66.65;101031.52;122736;1105;104312;-79
2022/02/26 04:16:20;;;;;;;31.90;15.87;;;;;;;3.23;66.50;101043.05;123095;1105;104258;-79
2022/02/26 04:18:52;;;;;;;30.40;15.73;;;;;;;3.28;66.52;101043.39;123060;1105;104236;-78
2022/02/26 04:21:25;;;;;;;31.03;15.97;;;;;;;3.30;66.59;101042.69;123013;1104;104257;-79
2022/02/26 04:23:57;;;;;;;30.73;15.37;;;;;;;3.34;66.53;101049.92;123010;1105;104462;-78
2022/02/26 04:26:28;;;;;;;34.30;16.83;;;;;;;3.37;66.21;101052.74;122945;1105;104258;-79
2022/02/26 04:29:00;;;;;;;28.33;15.00;;;;;;;3.40;66.93;101059.86;122714;1105;104781;-79
2022/02/26 04:31:32;;;;;;;32.83;15.97;;;;;;;3.41;66.53;101061.64;122729;1105;104287;-79
2022/02/26 04:34:03;;;;;;;30.03;15.23;;;;;;;3.42;66.04;101071.23;123010;1105;104390;-79
2022/02/26 04:36:35;;;;;;;34.40;16.93;;;;;;;3.45;67.02;101070.58;123105;1105;104184;-79
2022/02/26 04:39:08;;;;;;;30.13;15.17;;;;;;;3.45;66.78;101076.66;123000;1103;104236;-79
2022/02/26 04:41:40;;;;;;;29.72;14.03;;;;;;;3.49;66.84;101083.89;122855;1105;104190;-79
2022/02/26 04:44:11;;;;;;;31.53;15.33;;;;;;;3.51;67.31;101077.11;122688;1105;104313;-79
2022/02/26 04:46:43;;;;;;;31.13;15.20;;;;;;;3.54;67.09;101089.41;122773;1105;104709;-79
2022/02/26 04:49:14;;;;;;;31.37;14.00;;;;;;;3.56;67.09;101095.61;122943;1105;104257;-78
2022/02/26 04:51:45;;;;;;;26.43;13.23;;;;;;;3.59;66.91;101095.83;123007;1105;104647;-78
2022/02/26 04:54:17;;;;;;;26.60;13.20;;;;;;;3.62;66.98;101089.97;122829;1103;104808;-79
2022/02/26 04:56:48;;;;;;;25.30;12.97;;;;;;;3.66;67.32;101094.58;122969;1105;104272;-79
2022/02/26 04:59:20;;;;;;;28.03;12.93;;;;;;;3.69;67.20;101095.69;122889;1105;104242;-79
2022/02/26 05:01:51;;;;;;;24.53;12.17;;;;;;;3.73;67.30;101099.44;122985;1105;104284;-79
2022/02/26 05:04:22;;;;;;;28.87;13.47;;;;;;;3.77;66.87;101104.96;122893;1104;104264;-78
2022/02/26 05:06:53;;;;;;;27.83;12.47;;;;;;;3.81;67.25;101113.86;123132;1103;104246;-79
2022/02/26 05:09:25;;;;;;;26.07;12.60;;;;;;;3.84;67.00;101113.20;122847;1105;104264;-79
2022/02/26 05:11:56;;;;;;;27.80;12.60;;;;;;;3.87;66.72;101122.09;122904;1105;104187;-78
2022/02/26 05:14:28;;;;;;;28.67;13.00;;;;;;;3.91;67.10;101126.73;123066;1105;104361;-78
2022/02/26 05:16:59;;;;;;;25.25;12.35;;;;;;;3.95;67.40;101130.45;122959;1105;104408;-78
2022/02/26 05:19:30;;;;;;;27.87;12.90;;;;;;;4.00;66.73;101128.18;122947;1103;104355;-79
2022/02/26 05:22:02;;;;;;;26.30;11.83;;;;;;;4.04;67.27;101136.30;122901;1105;104403;-78
2022/02/26 05:24:33;;;;;;;24.03;11.10;;;;;;;4.08;67.34;101134.82;122877;1105;104303;-79
2022/02/26 05:27:05;;;;;;;24.80;11.07;;;;;;;4.11;67.43;101133.37;122896;1105;104258;-78
2022/02/26 05:29:36;;;;;;;24.33;10.87;;;;;;;4.16;67.83;101148.36;122786;1105;104482;-79
2022/02/26 05:32:09;;;;;;;23.20;10.87;;;;;;;4.19;67.28;101159.89;122674;1105;104290;-78
2022/02/26 05:34:41;;;;;;;26.23;11.63;;;;;;;4.23;67.02;101156.70;122874;1105;104376;-80
2022/02/26 05:37:13;;;;;;;25.20;10.83;;;;;;;4.26;67.81;101151.72;122733;1105;104286;-79
2022/02/26 05:39:44;;;;;;;24.70;11.37;;;;;;;4.30;67.31;101152.84;122696;1105;104300;-79
2022/02/26 05:42:15;;;;;;;23.10;10.25;;;;;;;4.34;67.19;101161.77;122670;1105;104543;-79
2022/02/26 05:44:47;;;;;;;23.67;10.93;;;;;;;4.36;67.58;101161.06;122636;1104;104700;-78
2022/02/26 05:47:18;;;;;;;25.57;11.30;;;;;;;4.39;67.39;101153.48;122715;1105;104287;-79
2022/02/26 05:49:50;;;;;;;26.33;11.30;;;;;;;4.44;67.43;101162.53;123063;1105;104284;-78
2022/02/26 05:52:22;;;;;;;25.33;10.27;;;;;;;4.47;67.41;101167.03;122783;1104;104291;-78
2022/02/26 05:54:53;;;;;;;22.47;9.90;;;;;;;4.51;67.60;101171.66;122761;1105;104312;-79
2022/02/26 05:57:24;;;;;;;20.57;10.00;;;;;;;4.55;67.38;101181.49;122807;1105;104305;-79
2022/02/26 05:59:56;;;;;;;22.13;9.40;;;;;;;4.56;68.20;101188.47;123079;1105;104368;-80
2022/02/26 06:02:27;;;;;;;20.77;9.17;;;;;;;4.58;67.36;101183.38;123025;1105;104361;-79
2022/02/26 06:04:59;;;;;;;21.33;9.37;;;;;;;4.61;67.38;101191.40;123003;1105;104258;-79
2022/02/26 06:07:31;;;;;;;21.80;8.80;;;;;;;4.65;67.63;101196.03;122921;1105;104344;-79
2022/02/26 06:10:03;;;;;;;20.03;8.13;;;;;;;4.67;67.46;101192.76;122939;1105;104281;-79
2022/02/26 06:12:34;;;;;;;21.10;8.47;;;;;;;4.72;67.99;101194.76;123013;1105;104367;-79
2022/02/26 06:15:07;;;;;;;17.10;8.55;;;;;;;4.73;67.51;101194.86;122856;1105;104396;-79
2022/02/26 06:17:39;;;;;;;20.20;8.83;;;;;;;4.76;67.99;101202.87;123001;1105;104709;-78
2022/02/26 06:20:13;;;;;;;23.35;9.00;;;;;;;4.80;67.44;101207.52;122740;1103;104328;-79
2022/02/26 06:22:42;;;;;;;;;;;;;;;4.83;67.72;101214.60;122654;1105;104325;-80
2022/02/26 06:25:14;;;;;;;25.80;9.63;;;;;;;4.85;67.88;101220.84;122804;1105;104397;-79
2022/02/26 06:27:46;;;;;;;23.50;9.47;;;;;;;4.89;67.32;101219.34;122878;1105;104396;-79
2022/02/26 06:30:18;;;;;;;21.77;9.30;;;;;;;4.94;67.46;101225.76;122849;1105;104728;-80
2022/02/26 06:32:49;;;;;;;25.33;10.17;;;;;;;5.00;67.53;101231.39;122826;1105;104296;-80
2022/02/26 06:35:21;;;;;;;20.57;8.83;;;;;;;5.04;67.41;101229.11;122826;1105;104341;-78
2022/02/26 06:37:52;;;;;;;22.20;9.45;;;;;;;5.12;67.35;101232.25;122844;1105;104345;-79
2022/02/26 06:40:24;;;;;;;19.45;9.20;;;;;;;5.16;66.82;101231.67;122668;1105;104306;-79
2022/02/26 06:42:55;;;;;;;22.40;9.53;;;;;;;5.22;67.19;101229.50;122741;1105;104278;-79
2022/02/26 06:45:26;;;;;;;21.93;8.90;;;;;;;5.28;67.58;101234.20;122846;1105;104422;-79
2022/02/26 06:47:58;;;;;;;19.00;8.83;;;;;;;5.33;66.98;101229.30;122838;1105;104268;-79
2022/02/26 06:50:30;;;;;;;20.30;8.10;;;;;;;5.37;67.07;101232.23;122804;1105;104274;-79
2022/02/26 06:53:02;;;;;;;18.30;8.47;;;;;;;5.43;67.15;101236.06;122807;1105;104335;-79
2022/02/26 06:55:33;;;;;;;18.13;7.90;;;;;;;5.49;66.71;101231.28;122995;1105;104313;-79
2022/02/26 06:58:05;;;;;;;18.97;8.60;;;;;;;5.50;66.36;101247.00;122999;1105;117834;-78
2022/02/26 07:00:36;;;;;;;18.07;8.37;;;;;;;5.56;67.06;101247.42;122836;1105;104443;-78
2022/02/26 07:03:07;;;;;;;17.30;8.10;;;;;;;5.60;66.47;101251.13;122814;1105;104370;-78
2022/02/26 07:05:39;;;;;;;19.87;8.93;;;;;;;5.60;67.29;101248.52;122860;1105;104411;-80
2022/02/26 07:08:10;;;;;;;19.40;8.70;;;;;;;5.66;66.92;101254.14;122798;1103;104283;-79
2022/02/26 07:10:42;;;;;;;19.27;8.13;;;;;;;5.70;66.69;101250.03;122876;1105;104309;-80
2022/02/26 07:13:13;;;;;;;19.57;8.43;;;;;;;5.71;65.71;101267.47;122812;1105;104351;-79
2022/02/26 07:15:44;;;;;;;18.33;7.73;;;;;;;5.77;66.48;101257.47;122788;1105;104290;-79
2022/02/26 07:18:16;;;;;;;19.30;7.70;;;;;;;5.80;66.40;101255.07;122916;1105;105485;-78
2022/02/26 07:20:50;;;;;;;20.37;8.73;;;;;;;5.86;65.94;101254.55;123052;1105;104373;-79
2022/02/26 07:23:20;;;;;;;;;;;;;;;5.95;66.30;101255.17;122862;1105;104191;-79
2022/02/26 07:25:51;;;;;;;18.77;7.93;;;;;;;6.00;65.99;101263.33;122855;1105;104385;-78
2022/02/26 07:28:22;;;;;;;18.13;8.20;;;;;;;6.08;65.62;101255.23;122728;1105;104296;-79
2022/02/26 07:30:54;;;;;;;22.10;8.87;;;;;;;6.15;65.42;101266.05;122940;1105;104373;-79
2022/02/26 07:33:25;;;;;;;20.77;8.07;;;;;;;6.20;65.39;101264.64;122878;1105;104309;-78
2022/02/26 07:35:57;;;;;;;22.07;8.77;;;;;;;6.23;65.35;101267.45;122782;1105;104323;-79
2022/02/26 07:38:28;;;;;;;18.97;8.23;;;;;;;6.28;65.22;101272.17;122704;1105;104377;-79
2022/02/26 07:41:00;;;;;;;22.30;9.70;;;;;;;6.35;65.36;101268.25;122796;1105;104414;-79
2022/02/26 07:43:32;;;;;;;18.87;8.70;;;;;;;6.35;64.87;101281.28;122875;1105;104255;-80
2022/02/26 07:46:04;;;;;;;20.17;8.73;;;;;;;6.39;65.09;101275.48;122978;1105;104367;-79
2022/02/26 07:48:36;;;;;;;18.60;8.23;;;;;;;6.41;64.85;101284.30;122986;1105;104276;-80
2022/02/26 07:51:07;;;;;;;20.30;8.87;;;;;;;6.41;64.81;101273.86;122709;1105;104271;-79
2022/02/26 07:53:39;;;;;;;17.90;8.20;;;;;;;6.46;64.79;101285.48;122877;1105;104296;-79
2022/02/26 07:56:11;;;;;;;16.97;7.60;;;;;;;6.52;64.44;101282.38;122755;1105;104259;-79
2022/02/26 07:58:42;;;;;;;19.70;8.33;;;;;;;6.55;64.26;101281.69;122751;1105;104389;-79
2022/02/26 08:01:14;;;;;;;17.30;8.20;;;;;;;6.55;64.01;101282.58;122885;1105;104387;-79
2022/02/26 08:03:45;;;;;;;20.17;8.57;;;;;;;6.64;64.09;101282.28;122847;1105;104382;-79
2022/02/26 08:06:17;;;;;;;19.57;8.00;;;;;;;6.75;64.33;101277.75;122838;1106;104242;-79
2022/02/26 08:08:48;;;;;;;17.60;8.07;;;;;;;6.82;64.17;101269.48;122795;1105;104290;-81
2022/02/26 08:11:20;;;;;;;20.27;9.03;;;;;;;6.90;63.87;101270.86;122797;1105;104414;-79
2022/02/26 08:13:54;;;;;;;19.85;8.15;;;;;;;6.98;63.56;101277.48;122804;1105;104444;-78
2022/02/26 08:16:29;;;;;;;21.07;8.63;;;;;;;7.08;63.53;101280.67;122713;1105;104297;-79
2022/02/26 08:19:00;;;;;;;22.50;9.17;;;;;;;7.20;62.94;101286.66;123191;1106;104363;-79
2022/02/26 08:21:34;;;;;;;20.53;8.70;;;;;;;7.27;62.76;101283.59;122920;1105;104255;-80
2022/02/26 08:24:06;;;;;;;21.10;9.20;;;;;;;7.34;62.56;101298.84;122940;1103;104345;-79
2022/02/26 08:26:37;;;;;;;21.10;9.10;;;;;;;7.34;62.61;101296.23;122799;1105;104383;-78
2022/02/26 08:29:09;;;;;;;23.60;10.43;;;;;;;7.35;62.26;101299.73;122882;1105;104411;-79
2022/02/26 08:31:40;;;;;;;22.70;10.87;;;;;;;7.39;62.42;101293.90;122856;1105;104284;-79
2022/02/26 08:34:12;;;;;;;25.40;11.07;;;;;;;7.46;61.91;101297.78;123104;1105;104287;-79
2022/02/26 08:36:44;;;;;;;21.97;10.73;;;;;;;7.56;62.22;101292.31;123122;1103;104182;-79
2022/02/26 08:39:16;;;;;;;24.27;10.43;;;;;;;7.65;61.43;101299.78;123443;1105;104419;-79
2022/02/26 08:41:47;;;;;;;20.70;9.70;;;;;;;7.73;60.01;101306.40;123417;1105;104710;-80
2022/02/26 08:44:19;;;;;;;20.67;8.80;;;;;;;7.81;60.88;101304.24;123547;1105;104259;-80
2022/02/26 08:46:51;;;;;;;21.37;9.00;;;;;;;7.85;60.92;101301.91;123113;1105;104312;-80
2022/02/26 08:49:22;;;;;;;17.97;9.10;;;;;;;7.89;61.41;101298.64;122814;1105;104345;-79
2022/02/26 08:51:54;;;;;;;20.10;8.97;;;;;;;7.93;60.36;101304.94;122874;1105;104361;-79
2022/02/26 08:54:26;;;;;;;18.30;8.73;;;;;;;7.98;60.44;101313.05;122864;1105;104287;-79
2022/02/26 08:56:57;;;;;;;15.23;7.70;;;;;;;8.00;61.25;101304.50;122923;1105;104425;-79
2022/02/26 08:59:29;;;;;;;18.70;8.20;;;;;;;8.04;60.90;101311.73;123173;1105;104370;-80
2022/02/26 09:02:01;;;;;;;19.35;8.60;;;;;;;8.07;61.37;101306.68;122982;1104;104251;-79
2022/02/26 09:04:32;;;;;;;16.67;7.93;;;;;;;8.14;60.14;101307.93;122792;1103;104333;-80
2022/02/26 09:07:04;;;;;;;16.60;7.90;;;;;;;8.15;59.99;101309.74;122695;1105;104329;-79
2022/02/26 09:09:36;;;;;;;15.70;7.40;;;;;;;8.18;59.00;101322.07;122846;1105;104287;-79
2022/02/26 09:12:10;;;;;;;16.67;7.13;;;;;;;8.18;58.94;101324.69;122711;1105;104398;-79
2022/02/26 09:14:41;;;;;;;16.90;6.90;;;;;;;8.15;59.28;101311.44;122802;1105;104280;-79
2022/02/26 09:17:13;;;;;;;17.00;7.30;;;;;;;8.13;58.48;101319.19;122822;1105;104288;-79
2022/02/26 09:19:44;;;;;;;15.37;6.70;;;;;;;8.15;59.34;101319.28;122743;1105;104730;-78
2022/02/26 09:22:16;;;;;;;15.43;7.00;;;;;;;8.17;59.24;101315.95;122815;1105;104293;-79
2022/02/26 09:24:47;;;;;;;16.57;6.77;;;;;;;8.22;58.93;101313.61;122832;1105;104320;-79
2022/02/26 09:27:18;;;;;;;16.47;7.10;;;;;;;8.28;58.23;101313.97;122933;1103;104252;-79
2022/02/26 09:29:50;;;;;;;14.83;6.77;;;;;;;8.27;58.62;101315.69;122838;1105;105636;-78
2022/02/26 09:32:22;;;;;;;16.77;6.80;;;;;;;8.26;57.71;101324.33;122692;1105;104357;-79
2022/02/26 09:34:54;;;;;;;19.47;7.00;;;;;;;8.24;58.17;101318.13;122767;1105;104744;-79
2022/02/26 09:37:25;;;;;;;15.65;6.90;;;;;;;8.27;57.50;101320.00;122809;1105;104321;-79
2022/02/26 09:39:58;;;;;;;16.45;6.90;;;;;;;8.31;57.75;101323.71;122663;1105;104494;-79
2022/02/26 09:42:31;;;;;;;16.37;7.20;;;;;;;8.33;57.34;101322.97;122686;1105;104842;-80
2022/02/26 09:45:03;;;;;;;17.83;7.20;;;;;;;8.43;57.52;101324.39;122691;1105;104399;-80
2022/02/26 09:47:34;;;;;;;15.23;6.63;;;;;;;8.48;57.47;101324.69;122727;1105;104684;-80
2022/02/26 09:50:07;;;;;;;15.33;6.57;;;;;;;8.53;56.96;101318.92;122737;1105;104331;-80
2022/02/26 09:52:42;;;;;;;14.77;6.90;;;;;;;8.55;56.22;101319.89;122651;1105;104437;-79
2022/02/26 09:55:14;;;;;;;16.33;7.00;;;;;;;8.69;56.84;101317.17;122740;1105;104392;-80
2022/02/26 09:57:45;;;;;;;14.80;6.70;;;;;;;8.75;56.34;101330.60;122714;1105;104443;-80
2022/02/26 10:00:18;;;;;;;14.60;6.70;;;;;;;8.73;55.42;101333.13;122686;1105;104542;-80
2022/02/26 10:02:51;;;;;;;15.43;6.37;;;;;;;8.78;55.84;101330.78;122668;1105;104424;-79
2022/02/26 10:05:23;;;;;;;14.27;5.70;;;;;;;8.73;54.50;101325.28;122764;1105;104444;-79
2022/02/26 10:07:55;;;;;;;12.07;5.73;;;;;;;8.82;54.93;101322.30;122740;1105;104385;-78
2022/02/26 10:10:29;;;;;;;13.03;5.70;;;;;;;8.89;54.49;101320.91;122732;1105;104530;-79
2022/02/26 10:13:02;;;;;;;14.53;5.87;;;;;;;8.97;54.26;101330.08;122802;1105;104824;-78
2022/02/26 10:15:36;;;;;;;13.07;5.60;;;;;;;9.00;54.32;101323.28;122767;1105;104420;-79
2022/02/26 10:18:11;;;;;;;11.47;4.70;;;;;;;9.02;53.02;101330.33;122866;1105;104248;-80
2022/02/26 10:20:49;;;;;;;13.65;5.30;;;;;;;9.09;53.81;101324.63;122820;1105;104194;-79
2022/02/26 10:23:22;;;;;;;12.63;5.07;;;;;;;9.18;53.98;101314.66;122791;1105;104401;-79
2022/02/26 10:26:06;;;;;;;16.87;5.17;;;;;;;9.32;53.43;101320.64;122945;1105;104405;-80
2022/02/26 10:28:41;;;;;;;8.58;4.62;;;;;;;9.38;53.42;101315.73;122830;1105;104306;-78
2022/02/26 10:31:13;;;;;;;9.17;4.60;;;;;;;9.43;52.45;101321.23;122756;1105;104486;-80
2022/02/26 10:33:44;;;;;;;11.90;4.80;;;;;;;9.48;52.02;101324.98;122794;1105;104402;-79
2022/02/26 10:36:16;;;;;;;11.37;4.63;;;;;;;9.46;52.32;101329.25;122767;1105;104357;-78
2022/02/26 10:38:50;;;;;;;11.20;4.97;;;;;;;9.41;50.80;101328.08;122799;1105;104283;-78
2022/02/26 10:41:21;;;;;;;9.43;4.00;;;;;;;9.37;50.37;101333.99;122687;1105;104332;-80
2022/02/26 10:43:55;;;;;;;11.63;3.90;;;;;;;9.32;48.85;101329.39;122842;1105;104281;-79
2022/02/26 10:46:30;;;;;;;12.50;4.23;;;;;;;9.34;48.07;101330.36;122909;1105;104233;-79
2022/02/26 10:49:03;;;;;;;9.33;4.10;;;;;;;9.47;50.44;101333.64;122822;1105;104370;-77
2022/02/26 10:51:39;;;;;;;9.70;3.80;;;;;;;9.59;50.71;101326.44;122796;1105;104287;-79
2022/02/26 10:54:12;;;;;;;8.00;3.80;;;;;;;9.67;49.72;101321.61;122810;1105;104281;-79
2022/02/26 10:56:45;;;;;;;12.40;4.03;;;;;;;9.64;47.84;101332.81;122863;1105;104328;-79
2022/02/26 10:59:32;;;;;;;12.50;4.50;;;;;;;9.63;48.96;101323.17;122816;1105;104341;-80
2022/02/26 11:02:07;;;;;;;14.00;4.77;;;;;;;9.58;48.24;101336.84;122792;1105;104492;-78
2022/02/26 11:04:39;;;;;;;10.63;4.40;;;;;;;9.50;49.01;101331.19;122769;1105;104363;-80
2022/02/26 11:07:11;;;;;;;9.13;4.07;;;;;;;9.56;49.17;101322.77;122786;1105;104332;-78
2022/02/26 11:09:45;;;;;;;15.57;3.83;;;;;;;9.58;48.08;101324.63;122870;1105;104376;-80
2022/02/26 11:12:15;;;;;;;;;;;;;;;9.54;45.43;101322.69;123040;1105;104360;-80
2022/02/26 11:14:52;;;;;;;8.63;3.43;;;;;;;9.58;47.83;101327.25;122733;1105;104307;-78
2022/02/26 11:17:26;;;;;;;8.07;3.53;;;;;;;9.54;47.21;101330.55;122765;1106;104287;-79
2022/02/26 11:20:01;;;;;;;10.50;3.60;;;;;;;9.53;46.42;101333.97;122852;1105;104299;-80
2022/02/26 11:22:34;;;;;;;9.27;3.80;;;;;;;9.42;45.56;101330.78;122673;1105;104284;-79
2022/02/26 11:25:07;;;;;;;8.73;3.70;;;;;;;9.42;45.21;101337.75;122862;1103;104261;-81
2022/02/26 11:27:38;;;;;;;9.20;3.90;;;;;;;9.45;45.16;101341.42;122845;1105;104358;-79
2022/02/26 11:30:15;;;;;;;10.87;3.87;;;;;;;9.53;47.42;101329.63;122894;1105;104236;-79